sensor_id;sensor_type;location;lat;lon;timestamp;P1;durP1;ratioP1;P2;durP2;ratioP2
79204;SDS011;68632;47.512;19.104;2023-12-07T00:00:53;16.65;;;10.85;;
79204;SDS011;68632;47.512;19.104;2023-12-07T00:01:56;15.93;;;10.05;;
79204;SDS011;68632;47.512;19.104;2023-12-07T00:02:58;16.17;;;9.73;;
79204;SDS011;68632;47.512;19.104;2023-12-07T00:04:01;15.50;;;9.52;;
79204;SDS011;68632;47.512;19.104;2023-12-07T00:05:04;15.18;;;10.13;;
79204;SDS011;68632;47.512;19.104;2023-12-07T00:06:06;14.85;;;10.20;;
79204;SDS011;68632;47.512;19.104;2023-12-07T00:07:08;13.73;;;8.82;;
79204;SDS011;68632;47.512;19.104;2023-12-07T00:08:11;15.40;;;9.32;;
79204;SDS011;68632;47.512;19.104;2023-12-07T00:09:13;15.05;;;10.55;;
79204;SDS011;68632;47.512;19.104;2023-12-07T00:10:15;15.80;;;9.93;;
79204;SDS011;68632;47.512;19.104;2023-12-07T00:11:17;14.75;;;9.38;;
79204;SDS011;68632;47.512;19.104;2023-12-07T00:12:19;16.55;;;9.82;;
79204;SDS011;68632;47.512;19.104;2023-12-07T00:13:22;14.07;;;9.27;;
79204;SDS011;68632;47.512;19.104;2023-12-07T00:14:24;16.08;;;10.10;;
79204;SDS011;68632;47.512;19.104;2023-12-07T00:15:26;13.40;;;9.15;;
79204;SDS011;68632;47.512;19.104;2023-12-07T00:16:28;15.73;;;9.07;;
79204;SDS011;68632;47.512;19.104;2023-12-07T00:17:31;12.68;;;8.68;;
79204;SDS011;68632;47.512;19.104;2023-12-07T00:18:34;13.68;;;9.32;;
79204;SDS011;68632;47.512;19.104;2023-12-07T00:19:36;11.73;;;8.27;;
79204;SDS011;68632;47.512;19.104;2023-12-07T00:20:38;13.18;;;9.35;;
79204;SDS011;68632;47.512;19.104;2023-12-07T00:21:40;13.98;;;9.10;;
79204;SDS011;68632;47.512;19.104;2023-12-07T00:22:43;14.02;;;9.32;;
79204;SDS011;68632;47.512;19.104;2023-12-07T00:23:45;14.75;;;10.10;;
79204;SDS011;68632;47.512;19.104;2023-12-07T00:24:47;14.30;;;9.27;;
79204;SDS011;68632;47.512;19.104;2023-12-07T00:25:50;15.93;;;9.57;;
79204;SDS011;68632;47.512;19.104;2023-12-07T00:26:54;12.45;;;8.88;;
79204;SDS011;68632;47.512;19.104;2023-12-07T00:27:57;12.27;;;8.05;;
79204;SDS011;68632;47.512;19.104;2023-12-07T00:29:00;14.98;;;9.25;;
79204;SDS011;68632;47.512;19.104;2023-12-07T00:30:02;12.07;;;8.43;;
79204;SDS011;68632;47.512;19.104;2023-12-07T00:31:05;12.05;;;8.27;;
79204;SDS011;68632;47.512;19.104;2023-12-07T00:32:07;12.90;;;8.93;;
79204;SDS011;68632;47.512;19.104;2023-12-07T00:33:10;13.77;;;8.95;;
79204;SDS011;68632;47.512;19.104;2023-12-07T00:34:12;13.20;;;8.50;;
79204;SDS011;68632;47.512;19.104;2023-12-07T00:35:14;14.40;;;8.82;;
79204;SDS011;68632;47.512;19.104;2023-12-07T00:36:18;15.00;;;8.82;;
79204;SDS011;68632;47.512;19.104;2023-12-07T00:37:20;16.30;;;8.45;;
79204;SDS011;68632;47.512;19.104;2023-12-07T00:38:22;12.73;;;8.65;;
79204;SDS011;68632;47.512;19.104;2023-12-07T00:39:24;14.45;;;8.75;;
79204;SDS011;68632;47.512;19.104;2023-12-07T00:40:27;14.07;;;8.20;;
79204;SDS011;68632;47.512;19.104;2023-12-07T00:41:29;10.25;;;6.93;;
79204;SDS011;68632;47.512;19.104;2023-12-07T00:42:31;10.60;;;7.28;;
79204;SDS011;68632;47.512;19.104;2023-12-07T00:43:33;11.43;;;7.97;;
79204;SDS011;68632;47.512;19.104;2023-12-07T00:44:39;11.77;;;8.35;;
79204;SDS011;68632;47.512;19.104;2023-12-07T00:45:42;11.82;;;8.00;;
79204;SDS011;68632;47.512;19.104;2023-12-07T00:46:44;12.32;;;8.20;;
79204;SDS011;68632;47.512;19.104;2023-12-07T00:47:47;12.80;;;8.00;;
79204;SDS011;68632;47.512;19.104;2023-12-07T00:48:49;11.23;;;7.47;;
79204;SDS011;68632;47.512;19.104;2023-12-07T00:49:51;11.65;;;7.93;;
79204;SDS011;68632;47.512;19.104;2023-12-07T00:50:53;10.52;;;7.63;;
79204;SDS011;68632;47.512;19.104;2023-12-07T00:51:55;7.93;;;5.80;;
79204;SDS011;68632;47.512;19.104;2023-12-07T00:52:57;9.40;;;6.43;;
79204;SDS011;68632;47.512;19.104;2023-12-07T00:54:00;10.02;;;6.25;;
79204;SDS011;68632;47.512;19.104;2023-12-07T00:55:05;8.05;;;5.97;;
79204;SDS011;68632;47.512;19.104;2023-12-07T00:56:13;9.88;;;5.65;;
79204;SDS011;68632;47.512;19.104;2023-12-07T00:57:15;9.38;;;6.00;;
79204;SDS011;68632;47.512;19.104;2023-12-07T00:58:17;10.73;;;6.18;;
79204;SDS011;68632;47.512;19.104;2023-12-07T00:59:19;8.45;;;5.65;;
79204;SDS011;68632;47.512;19.104;2023-12-07T01:00:22;10.10;;;6.35;;
79204;SDS011;68632;47.512;19.104;2023-12-07T01:01:24;8.13;;;6.03;;
79204;SDS011;68632;47.512;19.104;2023-12-07T01:02:26;8.65;;;5.97;;
79204;SDS011;68632;47.512;19.104;2023-12-07T01:03:29;7.93;;;5.65;;
79204;SDS011;68632;47.512;19.104;2023-12-07T01:04:32;8.15;;;5.28;;
79204;SDS011;68632;47.512;19.104;2023-12-07T01:05:34;10.55;;;6.28;;
79204;SDS011;68632;47.512;19.104;2023-12-07T01:06:37;6.95;;;5.78;;
79204;SDS011;68632;47.512;19.104;2023-12-07T01:07:39;7.22;;;5.05;;
79204;SDS011;68632;47.512;19.104;2023-12-07T01:08:41;7.57;;;5.18;;
79204;SDS011;68632;47.512;19.104;2023-12-07T01:09:44;9.70;;;6.22;;
79204;SDS011;68632;47.512;19.104;2023-12-07T01:10:48;9.13;;;5.20;;
79204;SDS011;68632;47.512;19.104;2023-12-07T01:11:50;6.70;;;5.18;;
79204;SDS011;68632;47.512;19.104;2023-12-07T01:12:52;10.25;;;4.78;;
79204;SDS011;68632;47.512;19.104;2023-12-07T01:13:55;8.20;;;5.43;;
79204;SDS011;68632;47.512;19.104;2023-12-07T01:14:57;9.13;;;5.47;;
79204;SDS011;68632;47.512;19.104;2023-12-07T01:15:59;8.65;;;5.60;;
79204;SDS011;68632;47.512;19.104;2023-12-07T01:17:01;6.53;;;5.00;;
79204;SDS011;68632;47.512;19.104;2023-12-07T01:18:04;7.00;;;5.20;;
79204;SDS011;68632;47.512;19.104;2023-12-07T01:19:08;7.25;;;5.00;;
79204;SDS011;68632;47.512;19.104;2023-12-07T01:20:10;6.35;;;4.78;;
79204;SDS011;68632;47.512;19.104;2023-12-07T01:21:14;6.78;;;4.82;;
79204;SDS011;68632;47.512;19.104;2023-12-07T01:22:16;6.22;;;4.90;;
79204;SDS011;68632;47.512;19.104;2023-12-07T01:23:19;6.55;;;5.25;;
79204;SDS011;68632;47.512;19.104;2023-12-07T01:24:21;7.00;;;4.93;;
79204;SDS011;68632;47.512;19.104;2023-12-07T01:25:23;6.40;;;4.90;;
79204;SDS011;68632;47.512;19.104;2023-12-07T01:26:26;6.80;;;4.90;;
79204;SDS011;68632;47.512;19.104;2023-12-07T01:27:28;5.63;;;4.32;;
79204;SDS011;68632;47.512;19.104;2023-12-07T01:28:30;6.07;;;4.57;;
79204;SDS011;68632;47.512;19.104;2023-12-07T01:29:33;6.65;;;4.03;;
79204;SDS011;68632;47.512;19.104;2023-12-07T01:30:35;7.35;;;5.15;;
79204;SDS011;68632;47.512;19.104;2023-12-07T01:31:38;6.13;;;4.25;;
79204;SDS011;68632;47.512;19.104;2023-12-07T01:32:40;7.05;;;4.47;;
79204;SDS011;68632;47.512;19.104;2023-12-07T01:33:45;7.13;;;4.28;;
79204;SDS011;68632;47.512;19.104;2023-12-07T01:34:47;5.72;;;4.40;;
79204;SDS011;68632;47.512;19.104;2023-12-07T01:35:50;6.25;;;3.78;;
79204;SDS011;68632;47.512;19.104;2023-12-07T01:36:52;6.05;;;4.30;;
79204;SDS011;68632;47.512;19.104;2023-12-07T01:37:54;5.93;;;4.43;;
79204;SDS011;68632;47.512;19.104;2023-12-07T01:38:56;8.23;;;4.75;;
79204;SDS011;68632;47.512;19.104;2023-12-07T01:39:59;5.75;;;4.35;;
79204;SDS011;68632;47.512;19.104;2023-12-07T01:41:01;6.75;;;4.90;;
79204;SDS011;68632;47.512;19.104;2023-12-07T01:42:03;6.18;;;3.88;;
79204;SDS011;68632;47.512;19.104;2023-12-07T01:43:05;8.07;;;4.32;;
79204;SDS011;68632;47.512;19.104;2023-12-07T01:44:07;6.53;;;4.47;;
79204;SDS011;68632;47.512;19.104;2023-12-07T01:45:10;7.28;;;4.95;;
79204;SDS011;68632;47.512;19.104;2023-12-07T01:46:12;7.22;;;4.80;;
79204;SDS011;68632;47.512;19.104;2023-12-07T01:47:15;6.25;;;4.53;;
79204;SDS011;68632;47.512;19.104;2023-12-07T01:48:17;7.43;;;4.68;;
79204;SDS011;68632;47.512;19.104;2023-12-07T01:49:20;6.20;;;4.75;;
79204;SDS011;68632;47.512;19.104;2023-12-07T01:50:22;8.60;;;4.85;;
79204;SDS011;68632;47.512;19.104;2023-12-07T01:51:26;7.15;;;4.90;;
79204;SDS011;68632;47.512;19.104;2023-12-07T01:52:28;6.55;;;4.88;;
79204;SDS011;68632;47.512;19.104;2023-12-07T01:53:31;4.88;;;3.88;;
79204;SDS011;68632;47.512;19.104;2023-12-07T01:54:33;6.18;;;4.80;;
79204;SDS011;68632;47.512;19.104;2023-12-07T01:55:36;5.35;;;4.63;;
79204;SDS011;68632;47.512;19.104;2023-12-07T01:56:39;6.82;;;4.85;;
79204;SDS011;68632;47.512;19.104;2023-12-07T01:57:41;6.90;;;5.13;;
79204;SDS011;68632;47.512;19.104;2023-12-07T01:58:44;6.65;;;4.90;;
79204;SDS011;68632;47.512;19.104;2023-12-07T01:59:46;7.00;;;4.88;;
79204;SDS011;68632;47.512;19.104;2023-12-07T02:00:48;6.45;;;4.30;;
79204;SDS011;68632;47.512;19.104;2023-12-07T02:01:51;7.38;;;5.45;;
79204;SDS011;68632;47.512;19.104;2023-12-07T02:02:53;7.90;;;5.35;;
79204;SDS011;68632;47.512;19.104;2023-12-07T02:03:55;7.55;;;5.30;;
79204;SDS011;68632;47.512;19.104;2023-12-07T02:04:58;8.30;;;5.53;;
79204;SDS011;68632;47.512;19.104;2023-12-07T02:06:00;7.63;;;5.68;;
79204;SDS011;68632;47.512;19.104;2023-12-07T02:07:03;7.13;;;5.15;;
79204;SDS011;68632;47.512;19.104;2023-12-07T02:08:06;5.80;;;4.90;;
79204;SDS011;68632;47.512;19.104;2023-12-07T02:09:08;7.63;;;5.13;;
79204;SDS011;68632;47.512;19.104;2023-12-07T02:10:11;7.30;;;5.00;;
79204;SDS011;68632;47.512;19.104;2023-12-07T02:11:15;8.07;;;5.50;;
79204;SDS011;68632;47.512;19.104;2023-12-07T02:12:17;8.00;;;5.38;;
79204;SDS011;68632;47.512;19.104;2023-12-07T02:13:21;7.20;;;5.13;;
79204;SDS011;68632;47.512;19.104;2023-12-07T02:14:23;9.25;;;6.10;;
79204;SDS011;68632;47.512;19.104;2023-12-07T02:15:25;8.25;;;5.90;;
79204;SDS011;68632;47.512;19.104;2023-12-07T02:16:31;7.03;;;5.18;;
79204;SDS011;68632;47.512;19.104;2023-12-07T02:17:46;7.95;;;5.65;;
79204;SDS011;68632;47.512;19.104;2023-12-07T02:18:57;7.15;;;4.82;;
79204;SDS011;68632;47.512;19.104;2023-12-07T02:20:21;9.52;;;5.93;;
79204;SDS011;68632;47.512;19.104;2023-12-07T02:21:32;7.68;;;5.47;;
79204;SDS011;68632;47.512;19.104;2023-12-07T02:22:37;8.60;;;6.22;;
79204;SDS011;68632;47.512;19.104;2023-12-07T02:23:42;8.82;;;5.45;;
79204;SDS011;68632;47.512;19.104;2023-12-07T02:25:11;7.70;;;5.60;;
79204;SDS011;68632;47.512;19.104;2023-12-07T02:26:15;8.50;;;5.35;;
79204;SDS011;68632;47.512;19.104;2023-12-07T02:27:40;8.93;;;5.43;;
79204;SDS011;68632;47.512;19.104;2023-12-07T02:28:43;7.50;;;5.07;;
79204;SDS011;68632;47.512;19.104;2023-12-07T02:29:45;8.23;;;6.05;;
79204;SDS011;68632;47.512;19.104;2023-12-07T02:30:47;8.10;;;5.53;;
79204;SDS011;68632;47.512;19.104;2023-12-07T02:31:49;7.80;;;5.47;;
79204;SDS011;68632;47.512;19.104;2023-12-07T02:32:52;10.35;;;6.10;;
79204;SDS011;68632;47.512;19.104;2023-12-07T02:33:54;7.20;;;5.47;;
79204;SDS011;68632;47.512;19.104;2023-12-07T02:34:56;8.60;;;5.10;;
79204;SDS011;68632;47.512;19.104;2023-12-07T02:35:58;7.95;;;6.10;;
79204;SDS011;68632;47.512;19.104;2023-12-07T02:37:01;7.22;;;5.50;;
79204;SDS011;68632;47.512;19.104;2023-12-07T02:38:05;6.82;;;5.25;;
79204;SDS011;68632;47.512;19.104;2023-12-07T02:39:08;7.50;;;5.57;;
79204;SDS011;68632;47.512;19.104;2023-12-07T02:40:11;7.85;;;6.07;;
79204;SDS011;68632;47.512;19.104;2023-12-07T02:41:17;8.80;;;5.63;;
79204;SDS011;68632;47.512;19.104;2023-12-07T02:42:20;7.10;;;5.10;;
79204;SDS011;68632;47.512;19.104;2023-12-07T02:43:25;8.50;;;5.75;;
79204;SDS011;68632;47.512;19.104;2023-12-07T02:44:27;8.27;;;5.55;;
79204;SDS011;68632;47.512;19.104;2023-12-07T02:45:30;8.20;;;5.75;;
79204;SDS011;68632;47.512;19.104;2023-12-07T02:46:32;7.95;;;5.82;;
79204;SDS011;68632;47.512;19.104;2023-12-07T02:47:34;9.65;;;6.05;;
79204;SDS011;68632;47.512;19.104;2023-12-07T02:48:36;8.20;;;6.00;;
79204;SDS011;68632;47.512;19.104;2023-12-07T02:49:39;8.07;;;5.32;;
79204;SDS011;68632;47.512;19.104;2023-12-07T02:50:41;8.18;;;5.32;;
79204;SDS011;68632;47.512;19.104;2023-12-07T02:51:43;7.95;;;5.75;;
79204;SDS011;68632;47.512;19.104;2023-12-07T02:52:45;8.95;;;6.65;;
79204;SDS011;68632;47.512;19.104;2023-12-07T02:53:48;9.23;;;5.85;;
79204;SDS011;68632;47.512;19.104;2023-12-07T02:54:50;9.85;;;6.30;;
79204;SDS011;68632;47.512;19.104;2023-12-07T02:55:52;8.57;;;5.80;;
79204;SDS011;68632;47.512;19.104;2023-12-07T02:56:54;7.85;;;6.00;;
79204;SDS011;68632;47.512;19.104;2023-12-07T02:57:56;7.65;;;5.40;;
79204;SDS011;68632;47.512;19.104;2023-12-07T02:58:59;9.73;;;6.78;;
79204;SDS011;68632;47.512;19.104;2023-12-07T03:00:04;10.77;;;5.93;;
79204;SDS011;68632;47.512;19.104;2023-12-07T03:01:10;6.60;;;5.22;;
79204;SDS011;68632;47.512;19.104;2023-12-07T03:02:12;9.05;;;6.03;;
79204;SDS011;68632;47.512;19.104;2023-12-07T03:03:14;8.52;;;5.90;;
79204;SDS011;68632;47.512;19.104;2023-12-07T03:04:16;8.02;;;5.93;;
79204;SDS011;68632;47.512;19.104;2023-12-07T03:05:19;8.23;;;5.90;;
79204;SDS011;68632;47.512;19.104;2023-12-07T03:06:25;9.75;;;6.15;;
79204;SDS011;68632;47.512;19.104;2023-12-07T03:07:27;9.07;;;6.18;;
79204;SDS011;68632;47.512;19.104;2023-12-07T03:08:29;11.80;;;6.22;;
79204;SDS011;68632;47.512;19.104;2023-12-07T03:09:31;9.70;;;6.25;;
79204;SDS011;68632;47.512;19.104;2023-12-07T03:10:34;10.85;;;6.53;;
79204;SDS011;68632;47.512;19.104;2023-12-07T03:11:36;8.55;;;6.13;;
79204;SDS011;68632;47.512;19.104;2023-12-07T03:12:38;10.77;;;6.10;;
79204;SDS011;68632;47.512;19.104;2023-12-07T03:13:40;8.75;;;6.03;;
79204;SDS011;68632;47.512;19.104;2023-12-07T03:14:42;8.48;;;5.60;;
79204;SDS011;68632;47.512;19.104;2023-12-07T03:15:45;7.90;;;5.55;;
79204;SDS011;68632;47.512;19.104;2023-12-07T03:16:47;8.75;;;6.18;;
79204;SDS011;68632;47.512;19.104;2023-12-07T03:17:49;8.18;;;5.68;;
79204;SDS011;68632;47.512;19.104;2023-12-07T03:18:52;8.63;;;5.95;;
79204;SDS011;68632;47.512;19.104;2023-12-07T03:19:54;9.52;;;6.00;;
79204;SDS011;68632;47.512;19.104;2023-12-07T03:20:56;10.00;;;6.22;;
79204;SDS011;68632;47.512;19.104;2023-12-07T03:21:58;10.15;;;6.07;;
79204;SDS011;68632;47.512;19.104;2023-12-07T03:23:01;10.25;;;6.18;;
79204;SDS011;68632;47.512;19.104;2023-12-07T03:24:03;9.23;;;6.80;;
79204;SDS011;68632;47.512;19.104;2023-12-07T03:25:05;9.05;;;6.15;;
79204;SDS011;68632;47.512;19.104;2023-12-07T03:26:08;10.07;;;6.47;;
79204;SDS011;68632;47.512;19.104;2023-12-07T03:27:11;9.63;;;5.93;;
79204;SDS011;68632;47.512;19.104;2023-12-07T03:28:13;10.40;;;6.20;;
79204;SDS011;68632;47.512;19.104;2023-12-07T03:29:15;8.88;;;5.85;;
79204;SDS011;68632;47.512;19.104;2023-12-07T03:30:17;8.05;;;5.47;;
79204;SDS011;68632;47.512;19.104;2023-12-07T03:31:19;13.20;;;6.00;;
79204;SDS011;68632;47.512;19.104;2023-12-07T03:32:22;10.50;;;6.45;;
79204;SDS011;68632;47.512;19.104;2023-12-07T03:33:24;7.60;;;5.90;;
79204;SDS011;68632;47.512;19.104;2023-12-07T03:34:26;8.18;;;4.85;;
79204;SDS011;68632;47.512;19.104;2023-12-07T03:35:29;11.60;;;5.72;;
79204;SDS011;68632;47.512;19.104;2023-12-07T03:36:31;8.38;;;5.25;;
79204;SDS011;68632;47.512;19.104;2023-12-07T03:37:35;8.15;;;5.63;;
79204;SDS011;68632;47.512;19.104;2023-12-07T03:38:38;8.95;;;6.03;;
79204;SDS011;68632;47.512;19.104;2023-12-07T03:39:40;8.30;;;5.20;;
79204;SDS011;68632;47.512;19.104;2023-12-07T03:40:42;9.05;;;5.47;;
79204;SDS011;68632;47.512;19.104;2023-12-07T03:41:44;8.55;;;4.82;;
79204;SDS011;68632;47.512;19.104;2023-12-07T03:42:47;7.07;;;4.95;;
79204;SDS011;68632;47.512;19.104;2023-12-07T03:43:57;7.03;;;4.10;;
79204;SDS011;68632;47.512;19.104;2023-12-07T03:44:59;8.80;;;5.32;;
79204;SDS011;68632;47.512;19.104;2023-12-07T03:46:05;6.32;;;4.72;;
79204;SDS011;68632;47.512;19.104;2023-12-07T03:47:07;6.55;;;4.43;;
79204;SDS011;68632;47.512;19.104;2023-12-07T03:48:10;9.23;;;5.75;;
79204;SDS011;68632;47.512;19.104;2023-12-07T03:49:12;8.23;;;4.80;;
79204;SDS011;68632;47.512;19.104;2023-12-07T03:50:15;7.68;;;5.03;;
79204;SDS011;68632;47.512;19.104;2023-12-07T03:51:17;7.80;;;4.78;;
79204;SDS011;68632;47.512;19.104;2023-12-07T03:52:19;7.90;;;5.25;;
79204;SDS011;68632;47.512;19.104;2023-12-07T03:53:21;7.13;;;4.07;;
79204;SDS011;68632;47.512;19.104;2023-12-07T03:54:24;5.85;;;4.25;;
79204;SDS011;68632;47.512;19.104;2023-12-07T03:55:26;6.28;;;4.13;;
79204;SDS011;68632;47.512;19.104;2023-12-07T03:56:28;7.22;;;4.75;;
79204;SDS011;68632;47.512;19.104;2023-12-07T03:57:31;6.63;;;5.05;;
79204;SDS011;68632;47.512;19.104;2023-12-07T03:58:33;8.10;;;5.68;;
79204;SDS011;68632;47.512;19.104;2023-12-07T03:59:36;9.15;;;5.78;;
79204;SDS011;68632;47.512;19.104;2023-12-07T04:00:39;9.15;;;5.50;;
79204;SDS011;68632;47.512;19.104;2023-12-07T04:01:41;6.60;;;4.05;;
79204;SDS011;68632;47.512;19.104;2023-12-07T04:02:43;8.27;;;5.53;;
79204;SDS011;68632;47.512;19.104;2023-12-07T04:03:46;7.55;;;5.00;;
79204;SDS011;68632;47.512;19.104;2023-12-07T04:04:48;7.78;;;5.30;;
79204;SDS011;68632;47.512;19.104;2023-12-07T04:05:50;9.43;;;5.72;;
79204;SDS011;68632;47.512;19.104;2023-12-07T04:06:52;10.57;;;5.97;;
79204;SDS011;68632;47.512;19.104;2023-12-07T04:07:54;8.00;;;5.18;;
79204;SDS011;68632;47.512;19.104;2023-12-07T04:08:56;7.63;;;5.15;;
79204;SDS011;68632;47.512;19.104;2023-12-07T04:09:59;7.90;;;4.75;;
79204;SDS011;68632;47.512;19.104;2023-12-07T04:11:01;7.40;;;4.82;;
79204;SDS011;68632;47.512;19.104;2023-12-07T04:12:03;8.55;;;5.25;;
79204;SDS011;68632;47.512;19.104;2023-12-07T04:13:06;8.38;;;4.93;;
79204;SDS011;68632;47.512;19.104;2023-12-07T04:14:08;9.00;;;5.78;;
79204;SDS011;68632;47.512;19.104;2023-12-07T04:15:10;7.35;;;5.50;;
79204;SDS011;68632;47.512;19.104;2023-12-07T04:16:12;8.07;;;5.30;;
79204;SDS011;68632;47.512;19.104;2023-12-07T04:17:15;6.65;;;4.60;;
79204;SDS011;68632;47.512;19.104;2023-12-07T04:18:17;10.35;;;6.10;;
79204;SDS011;68632;47.512;19.104;2023-12-07T04:19:19;8.57;;;5.22;;
79204;SDS011;68632;47.512;19.104;2023-12-07T04:20:22;6.97;;;5.07;;
79204;SDS011;68632;47.512;19.104;2023-12-07T04:21:24;8.63;;;4.82;;
79204;SDS011;68632;47.512;19.104;2023-12-07T04:22:26;7.15;;;4.78;;
79204;SDS011;68632;47.512;19.104;2023-12-07T04:23:29;6.28;;;4.50;;
79204;SDS011;68632;47.512;19.104;2023-12-07T04:24:31;9.38;;;5.30;;
79204;SDS011;68632;47.512;19.104;2023-12-07T04:25:33;8.75;;;4.85;;
79204;SDS011;68632;47.512;19.104;2023-12-07T04:26:35;7.15;;;5.13;;
79204;SDS011;68632;47.512;19.104;2023-12-07T04:27:37;8.23;;;4.65;;
79204;SDS011;68632;47.512;19.104;2023-12-07T04:28:39;8.15;;;5.45;;
79204;SDS011;68632;47.512;19.104;2023-12-07T04:29:42;8.07;;;5.05;;
79204;SDS011;68632;47.512;19.104;2023-12-07T04:30:44;7.53;;;5.18;;
79204;SDS011;68632;47.512;19.104;2023-12-07T04:31:46;5.88;;;3.78;;
79204;SDS011;68632;47.512;19.104;2023-12-07T04:32:48;7.90;;;4.70;;
79204;SDS011;68632;47.512;19.104;2023-12-07T04:33:50;7.60;;;5.07;;
79204;SDS011;68632;47.512;19.104;2023-12-07T04:34:53;6.20;;;4.68;;
79204;SDS011;68632;47.512;19.104;2023-12-07T04:35:55;9.13;;;5.03;;
79204;SDS011;68632;47.512;19.104;2023-12-07T04:36:57;6.88;;;4.68;;
79204;SDS011;68632;47.512;19.104;2023-12-07T04:37:59;6.65;;;4.63;;
79204;SDS011;68632;47.512;19.104;2023-12-07T04:39:02;8.00;;;4.05;;
79204;SDS011;68632;47.512;19.104;2023-12-07T04:40:05;5.38;;;4.30;;
79204;SDS011;68632;47.512;19.104;2023-12-07T04:41:08;6.38;;;4.50;;
79204;SDS011;68632;47.512;19.104;2023-12-07T04:42:10;6.05;;;4.40;;
79204;SDS011;68632;47.512;19.104;2023-12-07T04:43:12;6.40;;;4.38;;
79204;SDS011;68632;47.512;19.104;2023-12-07T04:44:14;6.50;;;4.15;;
79204;SDS011;68632;47.512;19.104;2023-12-07T04:45:17;5.53;;;4.10;;
79204;SDS011;68632;47.512;19.104;2023-12-07T04:46:19;7.90;;;4.28;;
79204;SDS011;68632;47.512;19.104;2023-12-07T04:47:21;7.35;;;4.50;;
79204;SDS011;68632;47.512;19.104;2023-12-07T04:48:25;5.95;;;4.80;;
79204;SDS011;68632;47.512;19.104;2023-12-07T04:49:27;6.97;;;4.82;;
79204;SDS011;68632;47.512;19.104;2023-12-07T04:50:30;8.75;;;5.53;;
79204;SDS011;68632;47.512;19.104;2023-12-07T04:51:32;6.72;;;4.13;;
79204;SDS011;68632;47.512;19.104;2023-12-07T04:52:34;8.68;;;5.57;;
79204;SDS011;68632;47.512;19.104;2023-12-07T04:53:37;6.72;;;4.85;;
79204;SDS011;68632;47.512;19.104;2023-12-07T04:54:39;9.43;;;6.40;;
79204;SDS011;68632;47.512;19.104;2023-12-07T04:55:42;9.05;;;5.60;;
79204;SDS011;68632;47.512;19.104;2023-12-07T04:56:48;9.80;;;5.95;;
79204;SDS011;68632;47.512;19.104;2023-12-07T04:57:50;10.25;;;7.20;;
79204;SDS011;68632;47.512;19.104;2023-12-07T04:58:53;10.73;;;7.10;;
79204;SDS011;68632;47.512;19.104;2023-12-07T04:59:55;10.18;;;7.03;;
79204;SDS011;68632;47.512;19.104;2023-12-07T05:00:57;10.43;;;7.10;;
79204;SDS011;68632;47.512;19.104;2023-12-07T05:02:01;10.55;;;6.38;;
79204;SDS011;68632;47.512;19.104;2023-12-07T05:03:04;5.47;;;4.03;;
79204;SDS011;68632;47.512;19.104;2023-12-07T05:04:06;8.85;;;6.07;;
79204;SDS011;68632;47.512;19.104;2023-12-07T05:05:08;8.48;;;6.55;;
79204;SDS011;68632;47.512;19.104;2023-12-07T05:06:11;8.13;;;5.03;;
79204;SDS011;68632;47.512;19.104;2023-12-07T05:07:13;8.13;;;4.95;;
79204;SDS011;68632;47.512;19.104;2023-12-07T05:08:16;7.85;;;5.32;;
79204;SDS011;68632;47.512;19.104;2023-12-07T05:09:19;6.82;;;4.60;;
79204;SDS011;68632;47.512;19.104;2023-12-07T05:10:23;4.07;;;3.05;;
79204;SDS011;68632;47.512;19.104;2023-12-07T05:11:26;7.25;;;4.90;;
79204;SDS011;68632;47.512;19.104;2023-12-07T05:12:28;5.47;;;4.25;;
79204;SDS011;68632;47.512;19.104;2023-12-07T05:13:30;6.78;;;4.32;;
79204;SDS011;68632;47.512;19.104;2023-12-07T05:14:35;8.57;;;4.85;;
79204;SDS011;68632;47.512;19.104;2023-12-07T05:15:38;6.68;;;4.32;;
79204;SDS011;68632;47.512;19.104;2023-12-07T05:16:40;7.82;;;4.75;;
79204;SDS011;68632;47.512;19.104;2023-12-07T05:17:42;6.60;;;4.55;;
79204;SDS011;68632;47.512;19.104;2023-12-07T05:18:45;6.22;;;4.47;;
79204;SDS011;68632;47.512;19.104;2023-12-07T05:19:47;6.72;;;4.60;;
79204;SDS011;68632;47.512;19.104;2023-12-07T05:20:49;8.27;;;5.28;;
79204;SDS011;68632;47.512;19.104;2023-12-07T05:21:52;9.07;;;5.65;;
79204;SDS011;68632;47.512;19.104;2023-12-07T05:22:54;7.82;;;5.03;;
79204;SDS011;68632;47.512;19.104;2023-12-07T05:23:56;7.63;;;4.93;;
79204;SDS011;68632;47.512;19.104;2023-12-07T05:24:58;6.35;;;4.72;;
79204;SDS011;68632;47.512;19.104;2023-12-07T05:26:01;8.07;;;4.70;;
79204;SDS011;68632;47.512;19.104;2023-12-07T05:27:03;9.88;;;5.65;;
79204;SDS011;68632;47.512;19.104;2023-12-07T05:28:05;8.13;;;5.43;;
79204;SDS011;68632;47.512;19.104;2023-12-07T05:29:08;5.57;;;4.75;;
79204;SDS011;68632;47.512;19.104;2023-12-07T05:30:10;9.48;;;5.47;;
79204;SDS011;68632;47.512;19.104;2023-12-07T05:31:16;7.35;;;5.20;;
79204;SDS011;68632;47.512;19.104;2023-12-07T05:32:19;8.10;;;5.43;;
79204;SDS011;68632;47.512;19.104;2023-12-07T05:33:21;7.03;;;5.03;;
79204;SDS011;68632;47.512;19.104;2023-12-07T05:34:23;7.97;;;5.95;;
79204;SDS011;68632;47.512;19.104;2023-12-07T05:35:25;9.25;;;5.20;;
79204;SDS011;68632;47.512;19.104;2023-12-07T05:36:27;7.22;;;5.38;;
79204;SDS011;68632;47.512;19.104;2023-12-07T05:37:30;7.50;;;5.57;;
79204;SDS011;68632;47.512;19.104;2023-12-07T05:38:32;7.45;;;4.85;;
79204;SDS011;68632;47.512;19.104;2023-12-07T05:39:34;7.65;;;5.22;;
79204;SDS011;68632;47.512;19.104;2023-12-07T05:40:36;6.53;;;4.50;;
79204;SDS011;68632;47.512;19.104;2023-12-07T05:41:38;7.95;;;5.03;;
79204;SDS011;68632;47.512;19.104;2023-12-07T05:42:41;6.70;;;4.88;;
79204;SDS011;68632;47.512;19.104;2023-12-07T05:43:43;6.00;;;4.13;;
79204;SDS011;68632;47.512;19.104;2023-12-07T05:44:45;7.10;;;4.47;;
79204;SDS011;68632;47.512;19.104;2023-12-07T05:45:47;7.72;;;5.47;;
79204;SDS011;68632;47.512;19.104;2023-12-07T05:46:50;7.53;;;5.10;;
79204;SDS011;68632;47.512;19.104;2023-12-07T05:47:52;8.48;;;5.55;;
79204;SDS011;68632;47.512;19.104;2023-12-07T05:48:54;8.35;;;4.93;;
79204;SDS011;68632;47.512;19.104;2023-12-07T05:49:58;8.90;;;5.22;;
79204;SDS011;68632;47.512;19.104;2023-12-07T05:51:02;7.75;;;4.78;;
79204;SDS011;68632;47.512;19.104;2023-12-07T05:52:04;8.82;;;5.82;;
79204;SDS011;68632;47.512;19.104;2023-12-07T05:53:07;8.20;;;4.82;;
79204;SDS011;68632;47.512;19.104;2023-12-07T05:54:09;7.03;;;5.18;;
79204;SDS011;68632;47.512;19.104;2023-12-07T05:55:11;7.45;;;5.25;;
79204;SDS011;68632;47.512;19.104;2023-12-07T05:56:16;9.93;;;5.35;;
79204;SDS011;68632;47.512;19.104;2023-12-07T05:57:22;8.00;;;5.22;;
79204;SDS011;68632;47.512;19.104;2023-12-07T05:58:25;6.65;;;4.57;;
79204;SDS011;68632;47.512;19.104;2023-12-07T05:59:27;8.60;;;5.85;;
79204;SDS011;68632;47.512;19.104;2023-12-07T06:00:29;7.32;;;5.45;;
79204;SDS011;68632;47.512;19.104;2023-12-07T06:01:31;11.95;;;6.15;;
79204;SDS011;68632;47.512;19.104;2023-12-07T06:02:34;10.48;;;6.10;;
79204;SDS011;68632;47.512;19.104;2023-12-07T06:03:36;8.98;;;5.82;;
79204;SDS011;68632;47.512;19.104;2023-12-07T06:04:38;12.02;;;6.40;;
79204;SDS011;68632;47.512;19.104;2023-12-07T06:05:41;9.20;;;6.57;;
79204;SDS011;68632;47.512;19.104;2023-12-07T06:06:43;8.18;;;5.63;;
79204;SDS011;68632;47.512;19.104;2023-12-07T06:07:45;9.38;;;5.95;;
79204;SDS011;68632;47.512;19.104;2023-12-07T06:08:47;9.70;;;6.00;;
79204;SDS011;68632;47.512;19.104;2023-12-07T06:09:49;10.93;;;6.18;;
79204;SDS011;68632;47.512;19.104;2023-12-07T06:10:52;11.50;;;7.18;;
79204;SDS011;68632;47.512;19.104;2023-12-07T06:11:54;9.77;;;5.85;;